KEST

Estherville Municipal Airport

Estherville, Iowa, USA
METAR KEST 241152Z AUTO 03006KT 1/4SM FZFG VV002 M12/M13 A3009 RMK AO2 SLP213 I6003 T11221133 11094 21133 56031
Observed Flight Rules
Feb-24 @ 11:52 UTC (30 minutes ago) Instrument Flight Rules
Wind Visibility Clouds Conditions
30° at 6 knots 1/4 miles
  • Vertical visibility at 200' AGL
  • Freezing
  • Fog
Temperatures Readings
Current -12°C / 10°F
Dewpoint -13°C / 9°F
Humidity 92%
Altimeter 30.09" Hg
Pressure 1021.3 hPa
Elevation 401
METAR KEST 241152Z AUTO 03006KT 1/4SM FZFG VV002 M12/M13 A3009 RMK AO2 SLP213 I6003 T11221133 11094 21133 56031
Observed Flight Rules
Feb-24 @ 11:52 UTC
(30 minutes ago)
LIFR
Wind Visibility
30° at 6 knots 1/4 miles
Clouds
  • Vertical visibility at 200' AGL
Conditions
  • Freezing
  • Fog
Temperature Dewpoint
-12°C / 10°F -13°C / 9°F
Humidity Altimeter Pressure
92% 30.09" Hg 1021.3 hPa